Time;durP1;ratioP1;P1;durP2;ratioP2;P2;SDS_P1;SDS_P2;PMS_P1;PMS_P2;Temp;Humidity;BMP_temperature;BMP_pressure;BME280_temperature;BME280_humidity;BME280_pressure;Samples;Min_cycle;Max_cycle;Signal;HPM_P1;HPM_P2
2023/01/01 00:02:08;;;;;;;0.63;0.63;;;12.20;99.90;;;;;;4992034;28;20646;-67
2023/01/01 00:04:34;;;;;;;0.10;0.10;;;12.20;99.90;;;;;;4992469;28;20260;-66
2023/01/01 00:07:00;;;;;;;0.10;0.10;;;12.20;99.90;;;;;;4992090;28;20183;-66
2023/01/01 00:12:10;;;;;;;0.00;0.00;;;12.30;99.90;;;;;;4977743;28;20214;-66
2023/01/01 00:14:38;;;;;;;0.25;0.25;;;12.40;99.90;;;;;;4994541;28;20243;-66
2023/01/01 00:17:03;;;;;;;0.28;0.28;;;12.60;99.90;;;;;;4992354;28;20210;-66
2023/01/01 00:19:29;;;;;;;0.05;0.05;;;12.60;99.90;;;;;;4987483;28;20214;-65
2023/01/01 00:21:54;;;;;;;0.20;0.20;;;12.60;99.90;;;;;;4977268;28;20203;-66
2023/01/01 00:24:20;;;;;;;0.20;0.20;;;12.60;99.90;;;;;;4977445;28;20176;-65
2023/01/01 00:26:46;;;;;;;0.03;0.03;;;12.70;99.90;;;;;;4991642;28;20183;-67
2023/01/01 00:29:11;;;;;;;0.00;0.00;;;12.60;99.90;;;;;;4993583;28;20219;-66
2023/01/01 00:31:37;;;;;;;0.00;0.00;;;12.60;99.90;;;;;;4991742;28;20230;-66
2023/01/01 00:34:02;;;;;;;0.00;0.00;;;12.60;99.90;;;;;;4991230;28;20650;-66
2023/01/01 00:36:29;;;;;;;0.40;0.40;;;12.60;99.90;;;;;;4991753;28;20195;-66
2023/01/01 00:38:55;;;;;;;0.30;0.17;;;12.60;99.90;;;;;;4991836;28;20549;-67
2023/01/01 00:41:21;;;;;;;0.00;0.00;;;12.70;99.90;;;;;;4991973;28;20266;-66
2023/01/01 00:43:46;;;;;;;0.00;0.00;;;12.70;99.90;;;;;;4991887;28;20184;-66
2023/01/01 00:46:12;;;;;;;0.05;0.05;;;12.70;99.90;;;;;;4991819;28;20527;-66
2023/01/01 00:48:38;;;;;;;0.00;0.00;;;12.60;99.90;;;;;;4990584;28;20329;-66
2023/01/01 00:51:04;;;;;;;0.08;0.08;;;12.60;99.90;;;;;;4990545;28;20183;-66
2023/01/01 00:53:29;;;;;;;0.10;0.10;;;12.50;99.90;;;;;;5000458;28;20219;-66
2023/01/01 00:55:55;;;;;;;0.00;0.00;;;12.50;99.90;;;;;;4991785;28;20199;-67
2023/01/01 00:58:22;;;;;;;0.00;0.00;;;12.40;99.90;;;;;;5011070;28;20175;-67
2023/01/01 01:00:49;;;;;;;0.10;0.10;;;12.40;99.90;;;;;;5011098;28;20271;-67
2023/01/01 01:03:36;;;;;;;0.00;0.00;;;12.40;99.90;;;;;;5011426;28;20642;-67
2023/01/01 01:06:03;;;;;;;0.08;0.08;;;12.40;99.90;;;;;;5010819;28;20213;-67
2023/01/01 01:08:35;;;;;;;0.10;0.10;;;12.50;99.90;;;;;;5010930;28;20797;-66
2023/01/01 01:11:16;;;;;;;0.52;0.47;;;12.70;99.90;;;;;;5011416;28;20186;-66
2023/01/01 01:13:43;;;;;;;0.10;0.10;;;12.80;99.90;;;;;;5011134;28;20264;-67
2023/01/01 01:16:20;;;;;;;0.03;0.03;;;12.80;99.90;;;;;;5010789;28;20202;-66
2023/01/01 01:18:45;;;;;;;0.00;0.00;;;12.90;99.90;;;;;;5011059;28;20195;-66
2023/01/01 01:21:15;;;;;;;0.00;0.00;;;13.00;99.90;;;;;;4993574;28;20181;-67
2023/01/01 01:23:41;;;;;;;0.13;0.13;;;13.00;99.90;;;;;;5010761;28;20198;-67
2023/01/01 01:26:14;;;;;;;0.00;0.00;;;13.00;99.90;;;;;;5010795;28;20187;-66
2023/01/01 01:28:40;;;;;;;0.00;0.00;;;13.00;99.90;;;;;;5011048;28;20167;-66
2023/01/01 01:31:06;;;;;;;0.00;0.00;;;13.00;99.90;;;;;;5010836;28;20278;-67
2023/01/01 01:33:32;;;;;;;0.10;0.10;;;13.00;99.90;;;;;;5011162;28;20650;-66
2023/01/01 01:35:57;;;;;;;0.00;0.00;;;12.90;99.90;;;;;;5010707;28;20183;-66
2023/01/01 01:38:23;;;;;;;0.00;0.00;;;12.90;99.90;;;;;;5010816;28;20229;-67
2023/01/01 01:40:48;;;;;;;0.00;0.00;;;12.80;99.90;;;;;;5010872;28;20205;-67
2023/01/01 01:43:45;;;;;;;0.63;0.40;;;12.80;99.90;;;;;;5010928;28;20183;-67
2023/01/01 01:46:33;;;;;;;0.00;0.00;;;12.70;99.90;;;;;;5014461;28;20186;-67
2023/01/01 01:49:13;;;;;;;0.00;0.00;;;12.60;99.90;;;;;;5014547;28;20274;-67
2023/01/01 01:51:39;;;;;;;0.00;0.00;;;12.50;99.90;;;;;;4996850;28;20182;-67
2023/01/01 01:54:13;;;;;;;0.20;0.20;;;12.40;99.90;;;;;;5013821;28;20767;-66
2023/01/01 01:56:49;;;;;;;0.13;0.13;;;12.30;99.90;;;;;;5014104;28;20568;-67
2023/01/01 01:59:17;;;;;;;0.00;0.00;;;12.30;99.90;;;;;;5014104;28;20245;-67
2023/01/01 02:01:43;;;;;;;0.05;0.05;;;12.30;99.90;;;;;;5013907;28;20186;-67
2023/01/01 02:04:09;;;;;;;0.00;0.00;;;12.30;99.90;;;;;;5004714;28;20191;-67
2023/01/01 02:06:37;;;;;;;0.00;0.00;;;12.30;99.90;;;;;;5013695;28;20182;-66
2023/01/01 02:09:05;;;;;;;0.10;0.10;;;12.30;99.90;;;;;;5014324;28;20598;-67
2023/01/01 02:11:30;;;;;;;0.00;0.00;;;12.30;99.90;;;;;;5013935;28;20175;-66
2023/01/01 02:13:57;;;;;;;0.00;0.00;;;12.30;99.90;;;;;;4996389;28;20223;-66
2023/01/01 02:16:41;;;;;;;0.00;0.00;;;12.30;99.90;;;;;;5013528;28;20203;-66
2023/01/01 02:19:33;;;;;;;0.00;0.00;;;12.30;99.90;;;;;;5003072;28;20187;-66
2023/01/01 02:22:16;;;;;;;0.00;0.00;;;12.30;99.90;;;;;;5013117;28;20269;-66
2023/01/01 02:24:48;;;;;;;1.17;1.13;;;12.30;99.90;;;;;;5013753;28;20197;-66
2023/01/01 02:27:31;;;;;;;0.00;0.00;;;12.20;99.90;;;;;;5013827;28;20179;-67
2023/01/01 02:30:02;;;;;;;0.10;0.10;;;12.20;99.90;;;;;;5013994;28;20190;-66
2023/01/01 02:32:51;;;;;;;0.10;0.10;;;12.10;99.90;;;;;;5013395;28;20733;-66
2023/01/01 02:35:33;;;;;;;0.22;0.22;;;12.10;99.90;;;;;;5013701;28;20301;-66
2023/01/01 02:38:09;;;;;;;0.00;0.00;;;12.00;99.90;;;;;;5013901;28;20645;-67
2023/01/01 02:40:40;;;;;;;0.73;0.38;;;11.90;99.90;;;;;;5013436;28;20179;-67
2023/01/01 02:43:06;;;;;;;0.10;0.10;;;11.90;99.90;;;;;;5013241;28;20183;-66
2023/01/01 02:45:32;;;;;;;0.00;0.00;;;11.90;99.90;;;;;;5013563;28;20233;-67
2023/01/01 02:48:02;;;;;;;0.00;0.00;;;11.80;99.90;;;;;;5013363;28;20626;-66
2023/01/01 02:50:28;;;;;;;0.10;0.10;;;11.80;99.90;;;;;;5013205;28;20645;-66
2023/01/01 02:53:16;;;;;;;0.00;0.00;;;11.70;99.90;;;;;;5012990;28;20257;-67
2023/01/01 02:56:11;;;;;;;0.00;0.00;;;11.70;99.90;;;;;;5012436;28;20257;-67
2023/01/01 03:01:48;;;;;;;0.00;0.00;;;11.60;99.90;;;;;;5005212;28;20214;-66
2023/01/01 03:04:14;;;;;;;0.00;0.00;;;11.60;99.90;;;;;;5004846;28;20194;-67
2023/01/01 03:06:53;;;;;;;0.00;0.00;;;11.60;99.90;;;;;;5013174;28;20183;-67
2023/01/01 03:09:46;;;;;;;0.08;0.08;;;11.60;99.90;;;;;;5010737;28;20201;-67
2023/01/01 03:12:38;;;;;;;0.00;0.00;;;11.60;99.90;;;;;;5013129;28;20555;-67
2023/01/01 03:15:10;;;;;;;0.00;0.00;;;11.60;99.90;;;;;;5000511;28;20295;-67
2023/01/01 03:17:46;;;;;;;0.00;0.00;;;11.50;99.90;;;;;;5012899;28;20186;-67
2023/01/01 03:20:19;;;;;;;0.00;0.00;;;11.50;99.90;;;;;;5012978;28;20193;-67
2023/01/01 03:22:48;;;;;;;0.00;0.00;;;11.50;99.90;;;;;;5010851;28;20179;-67
2023/01/01 03:25:20;;;;;;;0.00;0.00;;;11.50;99.90;;;;;;5012991;28;20194;-67
2023/01/01 03:27:51;;;;;;;0.00;0.00;;;11.40;99.90;;;;;;5012641;28;20542;-67
2023/01/01 03:30:19;;;;;;;0.00;0.00;;;11.40;99.90;;;;;;5012721;28;20660;-66
2023/01/01 03:33:02;;;;;;;0.00;0.00;;;11.40;99.90;;;;;;5012459;28;20222;-67
2023/01/01 03:35:50;;;;;;;0.00;0.00;;;11.40;99.90;;;;;;5012576;28;20571;-67
2023/01/01 03:38:25;;;;;;;0.00;0.00;;;11.30;99.90;;;;;;5012721;28;20201;-66
2023/01/01 03:40:55;;;;;;;0.03;0.03;;;11.30;99.90;;;;;;5003792;28;20182;-66
2023/01/01 03:43:32;;;;;;;0.00;0.00;;;11.30;99.90;;;;;;5012557;28;20183;-66
2023/01/01 03:45:59;;;;;;;0.00;0.00;;;11.20;99.90;;;;;;5012467;28;20622;-66
2023/01/01 03:48:25;;;;;;;0.10;0.10;;;11.10;99.90;;;;;;5011969;28;20720;-66
2023/01/01 03:51:09;;;;;;;0.00;0.00;;;11.10;99.90;;;;;;5012238;28;20270;-66
2023/01/01 03:53:43;;;;;;;0.00;0.00;;;11.10;99.90;;;;;;5012499;28;20586;-66
2023/01/01 03:56:17;;;;;;;0.03;0.03;;;11.10;99.90;;;;;;5012043;28;20238;-66
2023/01/01 03:58:57;;;;;;;0.10;0.10;;;11.20;99.90;;;;;;5011984;28;20257;-66
2023/01/01 04:01:29;;;;;;;0.00;0.00;;;11.20;99.90;;;;;;5012482;28;20225;-67
2023/01/01 04:03:56;;;;;;;0.08;0.08;;;11.20;99.90;;;;;;5011982;28;20198;-66
2023/01/01 04:06:22;;;;;;;0.00;0.00;;;11.20;99.90;;;;;;5011746;28;20229;-66
2023/01/01 04:08:49;;;;;;;0.00;0.00;;;11.30;99.90;;;;;;5010700;28;20183;-66
2023/01/01 04:14:13;;;;;;;0.00;0.00;;;11.40;99.90;;;;;;5003463;28;20565;-66
2023/01/01 04:16:39;;;;;;;0.00;0.00;;;11.40;99.90;;;;;;5011493;28;20187;-66
2023/01/01 04:19:05;;;;;;;0.00;0.00;;;11.40;99.90;;;;;;5011777;28;20185;-66
2023/01/01 04:21:31;;;;;;;0.03;0.03;;;11.30;99.90;;;;;;5011960;28;20269;-66
2023/01/01 04:23:57;;;;;;;0.00;0.00;;;11.30;99.90;;;;;;5011428;28;20182;-66
2023/01/01 04:26:22;;;;;;;0.90;0.22;;;11.30;99.90;;;;;;5012037;28;20241;-66
2023/01/01 04:28:48;;;;;;;0.00;0.00;;;11.30;99.90;;;;;;5011031;28;20649;-66
2023/01/01 04:31:13;;;;;;;0.00;0.00;;;11.30;99.90;;;;;;5011980;28;20302;-66
2023/01/01 04:33:39;;;;;;;0.20;0.13;;;11.30;99.90;;;;;;5011468;28;20177;-66
2023/01/01 04:36:09;;;;;;;0.00;0.00;;;11.30;99.90;;;;;;5011933;28;20285;-66
2023/01/01 04:38:36;;;;;;;0.00;0.00;;;11.30;99.90;;;;;;5011181;28;20178;-66
2023/01/01 04:41:02;;;;;;;0.00;0.00;;;11.20;99.90;;;;;;5002604;28;20189;-66
2023/01/01 04:43:28;;;;;;;0.00;0.00;;;11.20;99.90;;;;;;5011602;28;20179;-66
2023/01/01 04:45:59;;;;;;;0.00;0.00;;;11.20;99.90;;;;;;5011366;28;20186;-66
2023/01/01 04:48:25;;;;;;;0.10;0.10;;;11.20;99.90;;;;;;5011765;28;20240;-66
2023/01/01 04:50:59;;;;;;;0.00;0.00;;;11.20;99.90;;;;;;5011097;28;20574;-66
2023/01/01 04:53:27;;;;;;;0.00;0.00;;;11.20;99.90;;;;;;5011565;28;20223;-66
2023/01/01 04:55:53;;;;;;;0.28;0.28;;;11.10;99.90;;;;;;5011253;28;20306;-67
2023/01/01 04:58:18;;;;;;;0.00;0.00;;;11.10;99.90;;;;;;5011534;28;20262;-66
2023/01/01 05:00:48;;;;;;;0.10;0.10;;;11.10;99.90;;;;;;5011382;28;20190;-66
2023/01/01 05:03:14;;;;;;;0.00;0.00;;;11.10;99.90;;;;;;5011560;28;20216;-67
2023/01/01 05:05:39;;;;;;;0.00;0.00;;;11.10;99.90;;;;;;5011740;28;20215;-67
2023/01/01 05:08:05;;;;;;;1.10;1.08;;;11.10;99.90;;;;;;5011027;28;20187;-67
2023/01/01 05:10:30;;;;;;;0.15;0.15;;;11.10;99.90;;;;;;5012603;28;20198;-67
2023/01/01 05:12:56;;;;;;;0.00;0.00;;;11.00;99.90;;;;;;5011518;28;20182;-67
2023/01/01 05:15:21;;;;;;;0.00;0.00;;;11.00;99.90;;;;;;5010656;28;20268;-67
2023/01/01 05:17:47;;;;;;;0.15;0.15;;;11.00;99.90;;;;;;5013627;28;20190;-66
2023/01/01 05:20:12;;;;;;;0.00;0.00;;;11.00;99.90;;;;;;5013989;28;20222;-66
2023/01/01 05:22:38;;;;;;;0.00;0.00;;;11.00;99.90;;;;;;5015248;28;20182;-66
2023/01/01 05:25:04;;;;;;;0.00;0.00;;;11.00;99.90;;;;;;5014822;28;20190;-66
2023/01/01 05:27:29;;;;;;;0.00;0.00;;;11.00;99.90;;;;;;5014999;28;20190;-66
2023/01/01 05:29:55;;;;;;;0.00;0.00;;;11.00;99.90;;;;;;5015027;28;20212;-66
2023/01/01 05:32:21;;;;;;;0.10;0.10;;;11.00;99.90;;;;;;5015092;28;20214;-66
2023/01/01 05:34:46;;;;;;;0.00;0.00;;;11.00;99.90;;;;;;5014412;28;20971;-66
2023/01/01 05:37:12;;;;;;;0.05;0.05;;;11.10;99.90;;;;;;5014905;28;20748;-66
2023/01/01 05:39:37;;;;;;;0.00;0.00;;;11.10;99.90;;;;;;5014534;28;20596;-66
2023/01/01 05:42:03;;;;;;;0.00;0.00;;;11.10;99.90;;;;;;5014972;28;20241;-66
2023/01/01 05:44:28;;;;;;;0.00;0.00;;;11.20;99.90;;;;;;5013853;28;20273;-66
2023/01/01 05:46:54;;;;;;;0.00;0.00;;;11.20;99.90;;;;;;4996912;28;20217;-66
2023/01/01 05:49:19;;;;;;;0.00;0.00;;;11.30;99.90;;;;;;5014305;28;20210;-66
2023/01/01 05:51:45;;;;;;;0.00;0.00;;;11.40;99.90;;;;;;5014576;28;20197;-66
2023/01/01 05:54:10;;;;;;;0.00;0.00;;;11.50;99.90;;;;;;5014083;28;20624;-66
2023/01/01 05:56:36;;;;;;;0.00;0.00;;;11.60;99.90;;;;;;5014329;28;20189;-66
2023/01/01 05:59:02;;;;;;;0.00;0.00;;;11.60;99.90;;;;;;5013906;28;20282;-66
2023/01/01 06:01:29;;;;;;;0.47;0.47;;;11.70;99.90;;;;;;5014411;28;20253;-66
2023/01/01 06:03:56;;;;;;;0.00;0.00;;;11.70;99.90;;;;;;5013900;28;20197;-66
2023/01/01 06:06:24;;;;;;;0.00;0.00;;;11.70;99.90;;;;;;5014614;28;20232;-66
2023/01/01 06:08:50;;;;;;;0.00;0.00;;;11.80;99.90;;;;;;5013828;28;20194;-66
2023/01/01 06:11:16;;;;;;;0.00;0.00;;;11.80;99.90;;;;;;5014193;28;20277;-66
2023/01/01 06:13:42;;;;;;;0.00;0.00;;;11.90;99.90;;;;;;5014084;28;20234;-66
2023/01/01 06:16:09;;;;;;;0.00;0.00;;;11.90;99.90;;;;;;5013914;28;20214;-66
2023/01/01 06:18:35;;;;;;;0.00;0.00;;;12.00;99.90;;;;;;5011368;28;20186;-67
2023/01/01 06:21:12;;;;;;;0.00;0.00;;;12.00;99.90;;;;;;5013892;28;20205;-66
2023/01/01 06:23:38;;;;;;;0.00;0.00;;;12.10;99.90;;;;;;5013648;28;20653;-66
2023/01/01 06:26:09;;;;;;;0.00;0.00;;;12.20;99.90;;;;;;5013990;28;20215;-66
2023/01/01 06:28:35;;;;;;;0.00;0.00;;;12.20;99.90;;;;;;5013565;28;20266;-66
2023/01/01 06:31:03;;;;;;;0.00;0.00;;;12.30;99.90;;;;;;5012675;28;20305;-66
2023/01/01 06:33:29;;;;;;;0.00;0.00;;;12.30;99.90;;;;;;5013410;28;20174;-67
2023/01/01 06:35:55;;;;;;;0.00;0.00;;;12.40;99.90;;;;;;5013708;28;20211;-66
2023/01/01 06:38:21;;;;;;;0.00;0.00;;;12.40;99.90;;;;;;5013506;28;20179;-66
2023/01/01 06:41:03;;;;;;;0.00;0.00;;;12.50;99.90;;;;;;5011130;28;20282;-66
2023/01/01 06:43:30;;;;;;;0.13;0.13;;;12.50;99.90;;;;;;5015729;28;20193;-66
2023/01/01 06:46:10;;;;;;;0.00;0.00;;;12.50;99.90;;;;;;5013882;28;20178;-66
2023/01/01 06:48:36;;;;;;;0.00;0.00;;;12.50;99.90;;;;;;5013117;28;20732;-66
2023/01/01 06:51:22;;;;;;;0.00;0.00;;;12.50;99.90;;;;;;5002572;28;20179;-66
2023/01/01 06:53:49;;;;;;;0.00;0.00;;;12.40;99.90;;;;;;5013287;28;20230;-66
2023/01/01 06:56:15;;;;;;;0.00;0.00;;;12.40;99.90;;;;;;5013512;28;20289;-66
2023/01/01 06:58:40;;;;;;;0.00;0.00;;;12.40;99.90;;;;;;5013162;28;20171;-66
2023/01/01 07:01:10;;;;;;;0.00;0.00;;;12.50;99.90;;;;;;5013563;28;20182;-66
2023/01/01 07:03:36;;;;;;;0.00;0.00;;;12.50;99.90;;;;;;5012679;28;20175;-66
2023/01/01 07:06:01;;;;;;;0.00;0.00;;;12.50;99.90;;;;;;5013298;28;20493;-66
2023/01/01 07:08:27;;;;;;;0.00;0.00;;;12.50;99.90;;;;;;4995232;28;20181;-66
2023/01/01 07:10:56;;;;;;;0.00;0.00;;;12.50;99.90;;;;;;5013050;28;20186;-66
2023/01/01 07:13:22;;;;;;;0.00;0.00;;;12.50;99.90;;;;;;5013269;28;20191;-66
2023/01/01 07:15:47;;;;;;;0.00;0.00;;;12.50;99.90;;;;;;5012898;28;20214;-66
2023/01/01 07:18:13;;;;;;;0.00;0.00;;;12.50;99.90;;;;;;5013375;28;20701;-66
2023/01/01 07:20:38;;;;;;;0.00;0.00;;;12.40;99.90;;;;;;5012788;28;20592;-66
2023/01/01 07:23:04;;;;;;;0.25;0.25;;;12.40;99.90;;;;;;5011988;28;20187;-66
2023/01/01 07:25:29;;;;;;;0.40;0.20;;;12.30;99.90;;;;;;4999536;28;20653;-65
2023/01/01 07:27:55;;;;;;;0.00;0.00;;;12.30;99.90;;;;;;4993562;28;20305;-66
2023/01/01 07:30:20;;;;;;;0.00;0.00;;;12.20;99.90;;;;;;5010685;28;20195;-66
2023/01/01 07:32:46;;;;;;;0.00;0.00;;;12.20;99.90;;;;;;5002404;28;20191;-65
2023/01/01 07:35:11;;;;;;;0.00;0.00;;;12.10;99.90;;;;;;5012183;28;20218;-65
2023/01/01 07:37:37;;;;;;;0.15;0.15;;;12.10;99.90;;;;;;5012103;28;20266;-65
2023/01/01 07:40:03;;;;;;;0.00;0.00;;;12.10;99.90;;;;;;5012656;28;20258;-62
2023/01/01 07:42:28;;;;;;;0.00;0.00;;;12.10;99.90;;;;;;5012158;28;20578;-62
2023/01/01 07:44:54;;;;;;;0.00;0.00;;;12.10;99.90;;;;;;5012458;28;20195;-62
2023/01/01 07:47:22;;;;;;;0.00;0.00;;;12.10;99.90;;;;;;5011960;28;20230;-62
2023/01/01 07:49:48;;;;;;;0.00;0.00;;;12.10;99.90;;;;;;5003052;28;20194;-61
2023/01/01 07:52:14;;;;;;;0.00;0.00;;;12.10;99.90;;;;;;5009844;28;20268;-62
2023/01/01 07:54:39;;;;;;;0.08;0.08;;;12.10;99.90;;;;;;5012032;28;20705;-63
2023/01/01 07:57:05;;;;;;;0.00;0.00;;;12.10;99.90;;;;;;5002509;28;20187;-59
2023/01/01 07:59:31;;;;;;;0.00;0.00;;;12.10;99.90;;;;;;4992760;28;20201;-59
2023/01/01 08:01:57;;;;;;;0.10;0.10;;;12.10;99.90;;;;;;4996977;28;20278;-61
2023/01/01 08:04:23;;;;;;;0.00;0.00;;;12.10;99.90;;;;;;5012100;28;20258;-61
2023/01/01 08:06:48;;;;;;;0.05;0.05;;;12.10;99.90;;;;;;5012035;28;20236;-64
2023/01/01 08:09:14;;;;;;;0.00;0.00;;;12.10;99.90;;;;;;5011911;28;20197;-63
2023/01/01 08:11:39;;;;;;;0.00;0.00;;;12.10;99.90;;;;;;5011899;28;20179;-61
2023/01/01 08:14:05;;;;;;;0.00;0.00;;;12.10;99.90;;;;;;5011917;28;20838;-60
2023/01/01 08:16:31;;;;;;;0.00;0.00;;;12.10;99.90;;;;;;4993478;28;20534;-63
2023/01/01 08:18:56;;;;;;;0.00;0.00;;;12.00;99.90;;;;;;5011811;28;20268;-63
2023/01/01 08:21:22;;;;;;;0.00;0.00;;;11.90;99.90;;;;;;5011358;28;20233;-63
2023/01/01 08:23:47;;;;;;;0.10;0.10;;;11.90;99.90;;;;;;5011591;28;20253;-63
2023/01/01 08:26:15;;;;;;;0.00;0.00;;;11.90;99.90;;;;;;5011924;28;20189;-63
2023/01/01 08:28:41;;;;;;;0.00;0.00;;;11.90;99.90;;;;;;5011856;28;20217;-63
2023/01/01 08:31:06;;;;;;;0.00;0.00;;;12.00;99.90;;;;;;5010533;28;20248;-63
2023/01/01 08:33:32;;;;;;;0.00;0.00;;;12.00;99.90;;;;;;5011597;28;20653;-62
2023/01/01 08:35:57;;;;;;;0.05;0.05;;;12.10;99.90;;;;;;4992593;28;20222;-63
2023/01/01 08:38:23;;;;;;;0.45;0.32;;;12.20;99.90;;;;;;5014918;28;20182;-64
2023/01/01 08:40:48;;;;;;;0.00;0.00;;;12.20;99.90;;;;;;5011843;28;20181;-64
2023/01/01 08:43:14;;;;;;;0.00;0.00;;;12.30;99.90;;;;;;4999690;28;20262;-64
2023/01/01 08:45:39;;;;;;;0.00;0.00;;;12.40;99.90;;;;;;4992378;28;20206;-64
2023/01/01 08:48:05;;;;;;;0.00;0.00;;;12.40;99.90;;;;;;4992523;28;20270;-64
2023/01/01 08:50:30;;;;;;;0.00;0.00;;;12.50;99.90;;;;;;4992517;28;20283;-63
2023/01/01 08:52:59;;;;;;;0.00;0.00;;;12.60;99.90;;;;;;4992353;28;20227;-63
2023/01/01 08:55:25;;;;;;;0.32;0.25;;;12.60;99.90;;;;;;5007895;28;20214;-63
2023/01/01 08:57:51;;;;;;;0.00;0.00;;;12.70;99.90;;;;;;5015874;28;20182;-64
2023/01/01 09:00:17;;;;;;;0.38;0.38;;;12.80;99.90;;;;;;5031303;28;20186;-64
2023/01/01 09:02:42;;;;;;;0.00;0.00;;;12.90;99.90;;;;;;5019360;28;20175;-64
2023/01/01 09:05:09;;;;;;;0.00;0.00;;;13.00;99.90;;;;;;5015827;28;20189;-64
2023/01/01 09:07:34;;;;;;;0.00;0.00;;;13.00;99.90;;;;;;5015705;28;20171;-64
2023/01/01 09:10:00;;;;;;;0.00;0.00;;;13.10;99.90;;;;;;5015906;28;20185;-64
2023/01/01 09:12:25;;;;;;;0.00;0.00;;;13.20;99.90;;;;;;5015789;28;20194;-64
2023/01/01 09:14:51;;;;;;;0.00;0.00;;;13.30;99.90;;;;;;5015651;28;20201;-64
2023/01/01 09:17:17;;;;;;;0.00;0.00;;;13.30;99.90;;;;;;4998730;28;20182;-64
2023/01/01 09:19:42;;;;;;;0.00;0.00;;;13.40;99.90;;;;;;5001914;28;20241;-64
2023/01/01 09:22:10;;;;;;;0.00;0.00;;;13.40;99.90;;;;;;5007367;28;20567;-64
2023/01/01 09:24:35;;;;;;;0.00;0.00;;;13.50;99.90;;;;;;4995808;28;20179;-64
2023/01/01 09:27:01;;;;;;;0.00;0.00;;;13.60;99.90;;;;;;5004994;28;20194;-65
2023/01/01 09:29:26;;;;;;;0.00;0.00;;;13.70;99.90;;;;;;5007946;28;20197;-65
2023/01/01 09:31:52;;;;;;;0.00;0.00;;;13.80;99.90;;;;;;4996819;28;20274;-67
2023/01/01 09:34:17;;;;;;;0.00;0.00;;;13.90;99.90;;;;;;4995523;28;20565;-65
2023/01/01 09:36:44;;;;;;;0.00;0.00;;;14.10;99.90;;;;;;4996570;28;20179;-65
2023/01/01 09:39:14;;;;;;;0.20;0.20;;;14.20;99.90;;;;;;4995473;28;20183;-63
2023/01/01 09:41:40;;;;;;;0.00;0.00;;;14.30;99.90;;;;;;4998557;28;20262;-64
2023/01/01 09:44:31;;;;;;;0.00;0.00;;;14.50;99.90;;;;;;5008309;28;20218;-65
2023/01/01 09:47:01;;;;;;;0.00;0.00;;;14.70;99.90;;;;;;5002746;28;20322;-64
2023/01/01 09:49:35;;;;;;;0.03;0.03;;;15.00;99.90;;;;;;4995442;28;20338;-64
2023/01/01 09:52:04;;;;;;;0.10;0.10;;;15.20;99.90;;;;;;5001491;28;20183;-64
2023/01/01 09:54:35;;;;;;;0.00;0.00;;;15.30;99.90;;;;;;4997043;28;20230;-64
2023/01/01 09:57:05;;;;;;;0.00;0.00;;;15.40;99.90;;;;;;5004778;28;20198;-64
2023/01/01 09:59:31;;;;;;;0.00;0.00;;;15.40;99.90;;;;;;4995240;28;20659;-64
2023/01/01 10:02:19;;;;;;;0.00;0.00;;;15.50;99.90;;;;;;4996348;28;20230;-64
2023/01/01 10:05:00;;;;;;;0.00;0.00;;;15.60;99.90;;;;;;5014676;28;20290;-64
2023/01/01 10:07:43;;;;;;;0.00;0.00;;;15.70;99.90;;;;;;5014751;28;20214;-64
2023/01/01 10:10:36;;;;;;;0.00;0.00;;;15.70;99.90;;;;;;4996930;28;20183;-64
2023/01/01 10:13:32;;;;;;;0.00;0.00;;;15.80;99.90;;;;;;4995221;28;20650;-64
2023/01/01 10:16:03;;;;;;;0.00;0.00;;;15.80;99.90;;;;;;4995145;28;20250;-65
2023/01/01 10:18:33;;;;;;;0.00;0.00;;;15.90;99.90;;;;;;4994942;28;20172;-64
2023/01/01 10:21:08;;;;;;;0.00;0.00;;;16.10;99.90;;;;;;5005262;28;20278;-65
2023/01/01 10:23:42;;;;;;;0.00;0.00;;;16.20;99.90;;;;;;5014524;28;20170;-64
2023/01/01 10:26:13;;;;;;;0.00;0.00;;;16.30;99.70;;;;;;5014395;28;20208;-64
2023/01/01 10:28:53;;;;;;;0.00;0.00;;;16.40;99.70;;;;;;5014391;28;20167;-64
2023/01/01 10:31:33;;;;;;;0.00;0.00;;;16.40;99.50;;;;;;5015465;28;20174;-64
2023/01/01 10:34:21;;;;;;;0.00;0.00;;;16.40;98.60;;;;;;5025182;28;20179;-65
2023/01/01 10:36:46;;;;;;;0.00;0.00;;;16.40;98.30;;;;;;5014077;28;20183;-65
2023/01/01 10:39:14;;;;;;;0.00;0.00;;;16.40;98.20;;;;;;5031993;28;20180;-64
2023/01/01 10:41:40;;;;;;;0.00;0.00;;;16.50;97.40;;;;;;5033923;28;20181;-65
2023/01/01 10:44:07;;;;;;;0.00;0.00;;;16.50;97.30;;;;;;5033797;28;20510;-65
2023/01/01 10:46:36;;;;;;;0.00;0.00;;;16.50;97.50;;;;;;5016800;28;20529;-64
2023/01/01 10:49:10;;;;;;;0.00;0.00;;;16.60;97.50;;;;;;5014035;28;20633;-65
2023/01/01 10:51:41;;;;;;;0.00;0.00;;;16.60;97.60;;;;;;5013879;28;20535;-64
2023/01/01 10:54:38;;;;;;;0.00;0.00;;;16.70;97.40;;;;;;5009115;28;20270;-65
2023/01/01 10:57:27;;;;;;;0.03;0.03;;;16.80;97.20;;;;;;4993802;28;20702;-66
2023/01/01 10:59:53;;;;;;;0.00;0.00;;;17.00;97.00;;;;;;4994136;28;20183;-66
2023/01/01 11:02:21;;;;;;;0.00;0.00;;;17.10;97.00;;;;;;5011352;28;20214;-66
2023/01/01 11:04:47;;;;;;;0.00;0.00;;;17.10;96.40;;;;;;5013374;28;20642;-66
2023/01/01 11:07:26;;;;;;;0.00;0.00;;;17.20;96.20;;;;;;5013247;28;20179;-66
2023/01/01 11:09:55;;;;;;;0.00;0.00;;;17.20;95.70;;;;;;4996034;28;20217;-66
2023/01/01 11:12:26;;;;;;;0.10;0.10;;;17.20;95.20;;;;;;4995497;28;20183;-67
2023/01/01 11:14:57;;;;;;;0.32;0.32;;;17.30;94.70;;;;;;4993892;28;20214;-66
2023/01/01 11:17:25;;;;;;;0.00;0.00;;;17.30;94.40;;;;;;4993486;28;20634;-66
2023/01/01 11:19:52;;;;;;;0.38;0.38;;;17.40;93.60;;;;;;4994937;28;20211;-65
2023/01/01 11:22:40;;;;;;;0.00;0.00;;;17.50;93.60;;;;;;5013420;28;20186;-65
2023/01/01 11:25:38;;;;;;;0.00;0.00;;;17.50;93.20;;;;;;5013056;28;20752;-66
2023/01/01 11:28:33;;;;;;;0.00;0.00;;;17.50;93.10;;;;;;4990813;28;20684;-66
2023/01/01 11:31:21;;;;;;;0.00;0.00;;;17.60;93.00;;;;;;5011426;28;20195;-65
2023/01/01 11:33:51;;;;;;;0.00;0.00;;;17.60;93.00;;;;;;4993403;28;20258;-65
2023/01/01 11:36:35;;;;;;;0.00;0.00;;;17.60;92.70;;;;;;4994602;28;20222;-65
2023/01/01 11:39:16;;;;;;;0.00;0.00;;;17.70;92.80;;;;;;4993581;28;20642;-65
2023/01/01 11:41:44;;;;;;;0.00;0.00;;;17.70;92.10;;;;;;4982227;28;20186;-65
2023/01/01 11:44:12;;;;;;;0.00;0.00;;;17.80;92.30;;;;;;4995005;28;20265;-64
2023/01/01 11:46:38;;;;;;;0.00;0.00;;;18.00;91.70;;;;;;5011541;28;20191;-66
2023/01/01 11:49:13;;;;;;;0.00;0.00;;;18.10;91.50;;;;;;5012426;28;20270;-67
2023/01/01 11:51:39;;;;;;;0.00;0.00;;;18.30;90.70;;;;;;4993206;28;20221;-66
2023/01/01 11:54:27;;;;;;;0.00;0.00;;;18.40;90.40;;;;;;4995660;28;20235;-67
2023/01/01 11:56:57;;;;;;;0.00;0.00;;;18.50;90.30;;;;;;4992949;28;20191;-67
2023/01/01 11:59:28;;;;;;;0.00;0.00;;;18.60;89.80;;;;;;4993155;28;20176;-67
2023/01/01 12:02:02;;;;;;;0.00;0.00;;;18.70;89.60;;;;;;4993151;28;20542;-68
2023/01/01 12:04:55;;;;;;;0.00;0.00;;;18.80;89.60;;;;;;4992929;28;20171;-66
2023/01/01 12:07:27;;;;;;;0.00;0.00;;;18.80;88.20;;;;;;4997822;28;20270;-67
2023/01/01 12:10:05;;;;;;;0.00;0.00;;;18.90;87.70;;;;;;4975661;28;20186;-66
2023/01/01 12:12:38;;;;;;;0.00;0.00;;;18.90;88.20;;;;;;4992898;28;20257;-66
2023/01/01 12:15:14;;;;;;;0.00;0.00;;;18.90;86.60;;;;;;5007571;28;20225;-65
2023/01/01 12:17:48;;;;;;;0.00;0.00;;;19.00;87.10;;;;;;5007209;28;20178;-65
2023/01/01 12:20:32;;;;;;;0.00;0.00;;;19.00;86.90;;;;;;4997088;28;20189;-65
2023/01/01 12:22:59;;;;;;;0.00;0.00;;;19.00;84.90;;;;;;5011767;28;20182;-66
2023/01/01 12:25:32;;;;;;;0.00;0.00;;;19.00;85.20;;;;;;5012021;28;20281;-65
2023/01/01 12:28:35;;;;;;;0.00;0.00;;;18.80;84.80;;;;;;5010158;28;20183;-66
2023/01/01 12:31:21;;;;;;;0.00;0.00;;;18.80;85.30;;;;;;4996927;28;20190;-66
2023/01/01 12:34:05;;;;;;;0.00;0.00;;;18.80;85.90;;;;;;5008254;28;20193;-66
2023/01/01 12:36:52;;;;;;;0.00;0.00;;;18.80;84.50;;;;;;5012244;28;20281;-66
2023/01/01 12:40:00;;;;;;;0.00;0.00;;;18.70;83.20;;;;;;5006184;28;20178;-66
2023/01/01 12:42:49;;;;;;;0.00;0.00;;;18.70;82.80;;;;;;4997139;28;20649;-67
2023/01/01 12:45:39;;;;;;;0.00;0.00;;;18.60;83.30;;;;;;5011869;28;20179;-67
2023/01/01 12:48:26;;;;;;;0.00;0.00;;;18.60;83.20;;;;;;5007400;28;20198;-66
2023/01/01 12:51:21;;;;;;;0.38;0.38;;;18.70;83.00;;;;;;4995891;28;20200;-66
2023/01/01 12:53:57;;;;;;;0.00;0.00;;;18.60;82.50;;;;;;4992051;28;20684;-66
2023/01/01 12:56:48;;;;;;;0.00;0.00;;;18.60;82.80;;;;;;4993516;28;20214;-66
2023/01/01 12:59:21;;;;;;;0.00;0.00;;;18.60;82.70;;;;;;5001536;28;20182;-66
2023/01/01 13:01:48;;;;;;;0.00;0.00;;;18.60;81.80;;;;;;5011357;28;20186;-66
2023/01/01 13:04:17;;;;;;;0.00;0.00;;;18.50;82.30;;;;;;5011953;28;20237;-66
2023/01/01 13:06:50;;;;;;;0.00;0.00;;;18.60;82.10;;;;;;5011504;28;20707;-66
2023/01/01 13:09:22;;;;;;;0.00;0.00;;;18.50;80.90;;;;;;5009774;28;20187;-68
2023/01/01 13:12:04;;;;;;;0.00;0.00;;;18.40;80.90;;;;;;5008223;28;20171;-66
2023/01/01 13:14:35;;;;;;;0.00;0.00;;;18.40;80.70;;;;;;5000323;28;20198;-74
2023/01/01 13:17:01;;;;;;;0.00;0.00;;;18.40;81.40;;;;;;4986395;28;20184;-67